sensor_id;sensor_type;location;lat;lon;timestamp;P1;durP1;ratioP1;P2;durP2;ratioP2
40022;SDS011;25713;-35.352;149.036;2023-04-24T00:01:25;2.35;;;2.13;;
40022;SDS011;25713;-35.352;149.036;2023-04-24T00:03:57;4.95;;;1.90;;
40022;SDS011;25713;-35.352;149.036;2023-04-24T00:06:26;4.82;;;2.20;;
40022;SDS011;25713;-35.352;149.036;2023-04-24T00:08:55;3.25;;;1.90;;
40022;SDS011;25713;-35.352;149.036;2023-04-24T00:11:25;3.97;;;1.83;;
40022;SDS011;25713;-35.352;149.036;2023-04-24T00:13:54;3.47;;;1.70;;
40022;SDS011;25713;-35.352;149.036;2023-04-24T00:16:24;3.65;;;2.00;;
40022;SDS011;25713;-35.352;149.036;2023-04-24T00:18:55;5.60;;;2.08;;
40022;SDS011;25713;-35.352;149.036;2023-04-24T00:21:25;2.97;;;1.87;;
40022;SDS011;25713;-35.352;149.036;2023-04-24T00:23:54;5.65;;;1.92;;
40022;SDS011;25713;-35.352;149.036;2023-04-24T00:26:24;2.80;;;1.70;;
40022;SDS011;25713;-35.352;149.036;2023-04-24T00:28:53;1.70;;;1.60;;
40022;SDS011;25713;-35.352;149.036;2023-04-24T00:31:22;6.32;;;1.40;;
40022;SDS011;25713;-35.352;149.036;2023-04-24T00:33:52;3.03;;;1.38;;
40022;SDS011;25713;-35.352;149.036;2023-04-24T00:36:24;2.78;;;1.45;;
40022;SDS011;25713;-35.352;149.036;2023-04-24T00:38:53;2.00;;;1.30;;
40022;SDS011;25713;-35.352;149.036;2023-04-24T00:41:22;2.53;;;1.20;;
40022;SDS011;25713;-35.352;149.036;2023-04-24T00:43:52;3.75;;;1.50;;
40022;SDS011;25713;-35.352;149.036;2023-04-24T00:46:22;4.18;;;1.60;;
40022;SDS011;25713;-35.352;149.036;2023-04-24T00:48:52;3.03;;;1.30;;
40022;SDS011;25713;-35.352;149.036;2023-04-24T00:51:23;7.70;;;1.67;;
40022;SDS011;25713;-35.352;149.036;2023-04-24T00:53:52;3.97;;;1.40;;
40022;SDS011;25713;-35.352;149.036;2023-04-24T00:56:22;5.63;;;1.30;;
40022;SDS011;25713;-35.352;149.036;2023-04-24T00:58:51;2.97;;;1.45;;
40022;SDS011;25713;-35.352;149.036;2023-04-24T01:01:21;1.70;;;1.20;;
40022;SDS011;25713;-35.352;149.036;2023-04-24T01:03:51;2.47;;;1.48;;
40022;SDS011;25713;-35.352;149.036;2023-04-24T01:06:26;3.35;;;1.30;;
40022;SDS011;25713;-35.352;149.036;2023-04-24T01:08:56;3.05;;;1.40;;
40022;SDS011;25713;-35.352;149.036;2023-04-24T01:11:26;4.47;;;1.35;;
40022;SDS011;25713;-35.352;149.036;2023-04-24T01:13:56;5.03;;;1.05;;
40022;SDS011;25713;-35.352;149.036;2023-04-24T01:16:25;3.40;;;1.48;;
40022;SDS011;25713;-35.352;149.036;2023-04-24T01:18:57;4.40;;;1.48;;
40022;SDS011;25713;-35.352;149.036;2023-04-24T01:21:26;3.63;;;1.50;;
40022;SDS011;25713;-35.352;149.036;2023-04-24T01:24:00;1.27;;;1.15;;
40022;SDS011;25713;-35.352;149.036;2023-04-24T01:26:29;3.30;;;1.53;;
40022;SDS011;25713;-35.352;149.036;2023-04-24T01:28:58;2.30;;;1.30;;
40022;SDS011;25713;-35.352;149.036;2023-04-24T01:31:28;3.13;;;1.27;;
40022;SDS011;25713;-35.352;149.036;2023-04-24T01:33:58;2.10;;;1.20;;
40022;SDS011;25713;-35.352;149.036;2023-04-24T01:36:28;3.00;;;1.30;;
40022;SDS011;25713;-35.352;149.036;2023-04-24T01:38:59;3.22;;;1.40;;
40022;SDS011;25713;-35.352;149.036;2023-04-24T01:41:29;3.57;;;1.77;;
40022;SDS011;25713;-35.352;149.036;2023-04-24T01:43:58;2.83;;;1.23;;
40022;SDS011;25713;-35.352;149.036;2023-04-24T01:46:28;2.47;;;1.40;;
40022;SDS011;25713;-35.352;149.036;2023-04-24T01:48:58;3.65;;;1.35;;
40022;SDS011;25713;-35.352;149.036;2023-04-24T01:51:29;2.33;;;1.30;;
40022;SDS011;25713;-35.352;149.036;2023-04-24T01:54:00;4.40;;;1.65;;
40022;SDS011;25713;-35.352;149.036;2023-04-24T01:56:30;4.13;;;1.38;;
40022;SDS011;25713;-35.352;149.036;2023-04-24T01:59:01;2.65;;;1.30;;
40022;SDS011;25713;-35.352;149.036;2023-04-24T02:01:33;2.83;;;1.38;;
40022;SDS011;25713;-35.352;149.036;2023-04-24T02:04:03;2.33;;;1.10;;
40022;SDS011;25713;-35.352;149.036;2023-04-24T02:06:35;3.10;;;1.10;;
40022;SDS011;25713;-35.352;149.036;2023-04-24T02:09:07;2.70;;;0.98;;
40022;SDS011;25713;-35.352;149.036;2023-04-24T02:11:36;3.00;;;1.30;;
40022;SDS011;25713;-35.352;149.036;2023-04-24T02:14:06;2.08;;;1.15;;
40022;SDS011;25713;-35.352;149.036;2023-04-24T02:16:35;2.80;;;1.20;;
40022;SDS011;25713;-35.352;149.036;2023-04-24T02:19:04;2.47;;;1.00;;
40022;SDS011;25713;-35.352;149.036;2023-04-24T02:21:33;6.85;;;1.20;;
40022;SDS011;25713;-35.352;149.036;2023-04-24T02:24:03;2.10;;;1.05;;
40022;SDS011;25713;-35.352;149.036;2023-04-24T02:26:34;4.05;;;1.23;;
40022;SDS011;25713;-35.352;149.036;2023-04-24T02:29:04;3.00;;;1.40;;
40022;SDS011;25713;-35.352;149.036;2023-04-24T02:31:33;3.40;;;1.02;;
40022;SDS011;25713;-35.352;149.036;2023-04-24T02:34:03;2.05;;;1.00;;
40022;SDS011;25713;-35.352;149.036;2023-04-24T02:36:32;1.40;;;0.85;;
40022;SDS011;25713;-35.352;149.036;2023-04-24T02:39:02;2.20;;;1.00;;
40022;SDS011;25713;-35.352;149.036;2023-04-24T02:41:35;3.35;;;1.00;;
40022;SDS011;25713;-35.352;149.036;2023-04-24T02:44:04;2.50;;;1.30;;
40022;SDS011;25713;-35.352;149.036;2023-04-24T02:46:33;2.67;;;1.10;;
40022;SDS011;25713;-35.352;149.036;2023-04-24T02:49:03;4.45;;;1.30;;
40022;SDS011;25713;-35.352;149.036;2023-04-24T02:51:33;2.88;;;1.15;;
40022;SDS011;25713;-35.352;149.036;2023-04-24T02:54:02;1.33;;;0.90;;
40022;SDS011;25713;-35.352;149.036;2023-04-24T02:56:31;1.95;;;0.90;;
40022;SDS011;25713;-35.352;149.036;2023-04-24T02:59:04;2.22;;;1.08;;
40022;SDS011;25713;-35.352;149.036;2023-04-24T03:01:34;4.10;;;1.00;;
40022;SDS011;25713;-35.352;149.036;2023-04-24T03:04:03;3.92;;;1.00;;
40022;SDS011;25713;-35.352;149.036;2023-04-24T03:06:32;2.25;;;1.00;;
40022;SDS011;25713;-35.352;149.036;2023-04-24T03:09:02;1.17;;;0.82;;
40022;SDS011;25713;-35.352;149.036;2023-04-24T03:11:34;3.42;;;1.05;;
40022;SDS011;25713;-35.352;149.036;2023-04-24T03:16:32;3.05;;;0.80;;
40022;SDS011;25713;-35.352;149.036;2023-04-24T03:19:02;2.92;;;1.00;;
40022;SDS011;25713;-35.352;149.036;2023-04-24T03:21:35;2.85;;;1.00;;
40022;SDS011;25713;-35.352;149.036;2023-04-24T03:24:04;2.20;;;0.73;;
40022;SDS011;25713;-35.352;149.036;2023-04-24T03:26:35;2.78;;;0.90;;
40022;SDS011;25713;-35.352;149.036;2023-04-24T03:29:28;1.40;;;0.80;;
40022;SDS011;25713;-35.352;149.036;2023-04-24T03:31:57;2.53;;;1.00;;
40022;SDS011;25713;-35.352;149.036;2023-04-24T03:34:26;2.15;;;1.00;;
40022;SDS011;25713;-35.352;149.036;2023-04-24T03:36:57;2.55;;;0.80;;
40022;SDS011;25713;-35.352;149.036;2023-04-24T03:39:27;2.65;;;0.82;;
40022;SDS011;25713;-35.352;149.036;2023-04-24T03:41:59;1.55;;;0.85;;
40022;SDS011;25713;-35.352;149.036;2023-04-24T03:44:40;2.30;;;1.10;;
40022;SDS011;25713;-35.352;149.036;2023-04-24T03:47:09;2.58;;;0.90;;
40022;SDS011;25713;-35.352;149.036;2023-04-24T03:49:39;5.05;;;1.00;;
40022;SDS011;25713;-35.352;149.036;2023-04-24T03:52:10;3.00;;;0.85;;
40022;SDS011;25713;-35.352;149.036;2023-04-24T03:54:39;3.25;;;1.00;;
40022;SDS011;25713;-35.352;149.036;2023-04-24T03:57:11;2.88;;;0.80;;
40022;SDS011;25713;-35.352;149.036;2023-04-24T03:59:50;2.57;;;1.00;;
40022;SDS011;25713;-35.352;149.036;2023-04-24T04:02:20;3.17;;;0.90;;
40022;SDS011;25713;-35.352;149.036;2023-04-24T04:04:50;2.17;;;1.00;;
40022;SDS011;25713;-35.352;149.036;2023-04-24T04:07:19;4.53;;;0.95;;
40022;SDS011;25713;-35.352;149.036;2023-04-24T04:09:49;2.75;;;1.05;;
40022;SDS011;25713;-35.352;149.036;2023-04-24T04:12:20;3.17;;;1.00;;
40022;SDS011;25713;-35.352;149.036;2023-04-24T04:14:50;3.60;;;0.90;;
40022;SDS011;25713;-35.352;149.036;2023-04-24T04:17:19;3.28;;;1.00;;
40022;SDS011;25713;-35.352;149.036;2023-04-24T04:19:49;2.75;;;1.15;;
40022;SDS011;25713;-35.352;149.036;2023-04-24T04:22:19;1.25;;;0.80;;
40022;SDS011;25713;-35.352;149.036;2023-04-24T04:24:51;1.98;;;0.70;;
40022;SDS011;25713;-35.352;149.036;2023-04-24T04:27:25;2.00;;;0.80;;
40022;SDS011;25713;-35.352;149.036;2023-04-24T04:30:01;2.33;;;0.82;;
40022;SDS011;25713;-35.352;149.036;2023-04-24T04:32:37;2.40;;;0.80;;
40022;SDS011;25713;-35.352;149.036;2023-04-24T04:35:07;2.60;;;0.80;;
40022;SDS011;25713;-35.352;149.036;2023-04-24T04:37:36;3.25;;;1.17;;
40022;SDS011;25713;-35.352;149.036;2023-04-24T04:40:20;2.67;;;1.00;;
40022;SDS011;25713;-35.352;149.036;2023-04-24T04:42:57;2.60;;;0.82;;
40022;SDS011;25713;-35.352;149.036;2023-04-24T04:45:31;2.28;;;1.10;;
40022;SDS011;25713;-35.352;149.036;2023-04-24T04:48:18;3.40;;;0.90;;
40022;SDS011;25713;-35.352;149.036;2023-04-24T04:50:47;4.55;;;1.00;;
40022;SDS011;25713;-35.352;149.036;2023-04-24T04:53:17;3.65;;;1.02;;
40022;SDS011;25713;-35.352;149.036;2023-04-24T04:55:47;3.28;;;1.00;;
40022;SDS011;25713;-35.352;149.036;2023-04-24T04:58:19;1.70;;;0.90;;
40022;SDS011;25713;-35.352;149.036;2023-04-24T05:00:54;3.03;;;0.90;;
40022;SDS011;25713;-35.352;149.036;2023-04-24T05:03:30;2.72;;;1.10;;
40022;SDS011;25713;-35.352;149.036;2023-04-24T05:06:05;2.25;;;1.02;;
40022;SDS011;25713;-35.352;149.036;2023-04-24T05:08:37;2.47;;;0.90;;
40022;SDS011;25713;-35.352;149.036;2023-04-24T05:11:10;1.60;;;0.80;;
40022;SDS011;25713;-35.352;149.036;2023-04-24T05:13:42;2.63;;;1.00;;
40022;SDS011;25713;-35.352;149.036;2023-04-24T05:18:53;1.85;;;0.98;;
40022;SDS011;25713;-35.352;149.036;2023-04-24T05:21:28;4.63;;;1.10;;
40022;SDS011;25713;-35.352;149.036;2023-04-24T05:23:58;2.13;;;1.00;;
40022;SDS011;25713;-35.352;149.036;2023-04-24T05:26:45;3.47;;;0.90;;
40022;SDS011;25713;-35.352;149.036;2023-04-24T05:29:18;2.03;;;0.90;;
40022;SDS011;25713;-35.352;149.036;2023-04-24T05:31:48;1.80;;;1.00;;
40022;SDS011;25713;-35.352;149.036;2023-04-24T05:34:18;2.13;;;0.90;;
40022;SDS011;25713;-35.352;149.036;2023-04-24T05:36:50;2.40;;;0.90;;
40022;SDS011;25713;-35.352;149.036;2023-04-24T05:39:21;1.80;;;0.95;;
40022;SDS011;25713;-35.352;149.036;2023-04-24T05:41:50;2.47;;;0.95;;
40022;SDS011;25713;-35.352;149.036;2023-04-24T05:44:21;2.83;;;1.00;;
40022;SDS011;25713;-35.352;149.036;2023-04-24T05:46:51;2.78;;;0.90;;
40022;SDS011;25713;-35.352;149.036;2023-04-24T05:49:20;3.83;;;1.23;;
40022;SDS011;25713;-35.352;149.036;2023-04-24T05:51:50;7.20;;;1.77;;
40022;SDS011;25713;-35.352;149.036;2023-04-24T05:54:20;2.08;;;1.23;;
40022;SDS011;25713;-35.352;149.036;2023-04-24T05:56:49;5.70;;;1.20;;
40022;SDS011;25713;-35.352;149.036;2023-04-24T05:59:30;2.25;;;1.00;;
40022;SDS011;25713;-35.352;149.036;2023-04-24T06:02:00;1.20;;;1.10;;
40022;SDS011;25713;-35.352;149.036;2023-04-24T06:04:29;4.50;;;1.50;;
40022;SDS011;25713;-35.352;149.036;2023-04-24T06:06:59;3.20;;;1.15;;
40022;SDS011;25713;-35.352;149.036;2023-04-24T06:09:29;3.22;;;1.30;;
40022;SDS011;25713;-35.352;149.036;2023-04-24T06:11:58;4.00;;;1.25;;
40022;SDS011;25713;-35.352;149.036;2023-04-24T06:14:38;7.30;;;1.27;;
40022;SDS011;25713;-35.352;149.036;2023-04-24T06:17:24;4.88;;;1.50;;
40022;SDS011;25713;-35.352;149.036;2023-04-24T06:19:54;2.85;;;1.10;;
40022;SDS011;25713;-35.352;149.036;2023-04-24T06:22:25;2.67;;;1.17;;
40022;SDS011;25713;-35.352;149.036;2023-04-24T06:24:55;3.03;;;1.35;;
40022;SDS011;25713;-35.352;149.036;2023-04-24T06:27:25;5.13;;;1.90;;
40022;SDS011;25713;-35.352;149.036;2023-04-24T06:29:56;5.07;;;1.42;;
40022;SDS011;25713;-35.352;149.036;2023-04-24T06:32:26;2.90;;;1.30;;
40022;SDS011;25713;-35.352;149.036;2023-04-24T06:34:56;3.33;;;1.60;;
40022;SDS011;25713;-35.352;149.036;2023-04-24T06:37:26;1.73;;;1.00;;
40022;SDS011;25713;-35.352;149.036;2023-04-24T06:39:56;3.40;;;1.20;;
40022;SDS011;25713;-35.352;149.036;2023-04-24T06:42:26;3.85;;;1.40;;
40022;SDS011;25713;-35.352;149.036;2023-04-24T06:44:58;2.80;;;1.45;;
40022;SDS011;25713;-35.352;149.036;2023-04-24T06:47:28;4.05;;;1.27;;
40022;SDS011;25713;-35.352;149.036;2023-04-24T06:49:57;2.20;;;1.30;;
40022;SDS011;25713;-35.352;149.036;2023-04-24T06:52:27;3.28;;;1.17;;
40022;SDS011;25713;-35.352;149.036;2023-04-24T06:55:00;2.30;;;1.65;;
40022;SDS011;25713;-35.352;149.036;2023-04-24T06:57:30;2.10;;;1.30;;
40022;SDS011;25713;-35.352;149.036;2023-04-24T07:00:01;4.45;;;1.60;;
40022;SDS011;25713;-35.352;149.036;2023-04-24T07:02:31;3.47;;;1.55;;
40022;SDS011;25713;-35.352;149.036;2023-04-24T07:05:00;1.92;;;1.35;;
40022;SDS011;25713;-35.352;149.036;2023-04-24T07:07:29;3.25;;;1.50;;
40022;SDS011;25713;-35.352;149.036;2023-04-24T07:09:59;3.00;;;1.60;;
40022;SDS011;25713;-35.352;149.036;2023-04-24T07:12:28;3.45;;;1.58;;
40022;SDS011;25713;-35.352;149.036;2023-04-24T07:14:58;8.68;;;4.60;;
40022;SDS011;25713;-35.352;149.036;2023-04-24T07:17:29;5.80;;;2.72;;
40022;SDS011;25713;-35.352;149.036;2023-04-24T07:19:59;9.63;;;4.95;;
40022;SDS011;25713;-35.352;149.036;2023-04-24T07:22:28;8.00;;;4.47;;
40022;SDS011;25713;-35.352;149.036;2023-04-24T07:24:58;8.30;;;5.00;;
40022;SDS011;25713;-35.352;149.036;2023-04-24T07:27:27;12.65;;;6.28;;
40022;SDS011;25713;-35.352;149.036;2023-04-24T07:29:57;11.95;;;7.05;;
40022;SDS011;25713;-35.352;149.036;2023-04-24T07:32:28;11.70;;;6.63;;
40022;SDS011;25713;-35.352;149.036;2023-04-24T07:34:57;11.77;;;6.88;;
40022;SDS011;25713;-35.352;149.036;2023-04-24T07:37:27;10.80;;;6.45;;
40022;SDS011;25713;-35.352;149.036;2023-04-24T07:39:56;14.68;;;6.55;;
40022;SDS011;25713;-35.352;149.036;2023-04-24T07:42:26;10.05;;;6.10;;
40022;SDS011;25713;-35.352;149.036;2023-04-24T07:44:55;9.95;;;5.70;;
40022;SDS011;25713;-35.352;149.036;2023-04-24T07:47:25;11.63;;;6.00;;
40022;SDS011;25713;-35.352;149.036;2023-04-24T07:49:56;10.17;;;5.67;;
40022;SDS011;25713;-35.352;149.036;2023-04-24T07:52:26;9.63;;;5.60;;
40022;SDS011;25713;-35.352;149.036;2023-04-24T07:54:55;10.23;;;5.57;;
40022;SDS011;25713;-35.352;149.036;2023-04-24T07:57:24;10.43;;;5.60;;
40022;SDS011;25713;-35.352;149.036;2023-04-24T07:59:54;8.10;;;4.82;;
40022;SDS011;25713;-35.352;149.036;2023-04-24T08:02:23;9.15;;;4.93;;
40022;SDS011;25713;-35.352;149.036;2023-04-24T08:04:55;8.40;;;4.70;;
40022;SDS011;25713;-35.352;149.036;2023-04-24T08:07:24;11.07;;;4.80;;
40022;SDS011;25713;-35.352;149.036;2023-04-24T08:09:54;9.45;;;5.15;;
40022;SDS011;25713;-35.352;149.036;2023-04-24T08:12:23;7.05;;;4.13;;
40022;SDS011;25713;-35.352;149.036;2023-04-24T08:14:53;9.52;;;4.45;;
40022;SDS011;25713;-35.352;149.036;2023-04-24T08:17:23;5.72;;;3.88;;
40022;SDS011;25713;-35.352;149.036;2023-04-24T08:19:55;7.45;;;3.75;;
40022;SDS011;25713;-35.352;149.036;2023-04-24T08:22:24;5.77;;;3.60;;
40022;SDS011;25713;-35.352;149.036;2023-04-24T08:24:54;7.43;;;3.45;;
40022;SDS011;25713;-35.352;149.036;2023-04-24T08:27:23;4.85;;;3.15;;
40022;SDS011;25713;-35.352;149.036;2023-04-24T08:29:53;4.43;;;3.13;;
40022;SDS011;25713;-35.352;149.036;2023-04-24T08:32:23;5.47;;;2.78;;
40022;SDS011;25713;-35.352;149.036;2023-04-24T08:34:54;4.47;;;2.75;;
40022;SDS011;25713;-35.352;149.036;2023-04-24T08:37:25;5.78;;;2.83;;
40022;SDS011;25713;-35.352;149.036;2023-04-24T08:39:54;4.18;;;2.90;;
40022;SDS011;25713;-35.352;149.036;2023-04-24T08:42:24;5.30;;;2.85;;
40022;SDS011;25713;-35.352;149.036;2023-04-24T08:44:55;6.57;;;3.13;;
40022;SDS011;25713;-35.352;149.036;2023-04-24T08:47:25;4.93;;;2.90;;
40022;SDS011;25713;-35.352;149.036;2023-04-24T08:49:56;5.75;;;3.40;;
40022;SDS011;25713;-35.352;149.036;2023-04-24T08:52:26;4.60;;;3.10;;
40022;SDS011;25713;-35.352;149.036;2023-04-24T08:54:55;4.65;;;3.20;;
40022;SDS011;25713;-35.352;149.036;2023-04-24T08:57:25;6.18;;;3.33;;
40022;SDS011;25713;-35.352;149.036;2023-04-24T08:59:56;4.32;;;3.30;;
40022;SDS011;25713;-35.352;149.036;2023-04-24T09:02:26;6.57;;;2.88;;
40022;SDS011;25713;-35.352;149.036;2023-04-24T09:04:58;5.32;;;2.83;;
40022;SDS011;25713;-35.352;149.036;2023-04-24T09:07:27;4.68;;;2.70;;
40022;SDS011;25713;-35.352;149.036;2023-04-24T09:10:00;4.60;;;3.20;;
40022;SDS011;25713;-35.352;149.036;2023-04-24T09:12:30;4.88;;;2.70;;
40022;SDS011;25713;-35.352;149.036;2023-04-24T09:15:00;3.42;;;2.55;;
40022;SDS011;25713;-35.352;149.036;2023-04-24T09:17:30;3.63;;;2.22;;
40022;SDS011;25713;-35.352;149.036;2023-04-24T09:20:02;4.78;;;2.70;;
40022;SDS011;25713;-35.352;149.036;2023-04-24T09:22:32;4.50;;;2.70;;
40022;SDS011;25713;-35.352;149.036;2023-04-24T09:25:05;4.63;;;2.50;;
40022;SDS011;25713;-35.352;149.036;2023-04-24T09:27:36;3.35;;;2.35;;
40022;SDS011;25713;-35.352;149.036;2023-04-24T09:32:39;3.50;;;2.30;;
40022;SDS011;25713;-35.352;149.036;2023-04-24T09:35:11;3.05;;;2.10;;
40022;SDS011;25713;-35.352;149.036;2023-04-24T09:37:41;3.22;;;2.00;;
40022;SDS011;25713;-35.352;149.036;2023-04-24T09:40:12;4.57;;;2.15;;
40022;SDS011;25713;-35.352;149.036;2023-04-24T09:42:46;2.97;;;1.93;;
40022;SDS011;25713;-35.352;149.036;2023-04-24T09:45:21;3.65;;;2.00;;
40022;SDS011;25713;-35.352;149.036;2023-04-24T09:47:55;3.97;;;1.90;;
40022;SDS011;25713;-35.352;149.036;2023-04-24T09:50:26;3.90;;;2.00;;
40022;SDS011;25713;-35.352;149.036;2023-04-24T09:52:57;4.00;;;1.80;;
40022;SDS011;25713;-35.352;149.036;2023-04-24T09:55:29;4.15;;;1.85;;
40022;SDS011;25713;-35.352;149.036;2023-04-24T09:57:59;2.20;;;1.63;;
40022;SDS011;25713;-35.352;149.036;2023-04-24T10:00:29;1.73;;;1.27;;
40022;SDS011;25713;-35.352;149.036;2023-04-24T10:02:59;2.50;;;1.50;;
40022;SDS011;25713;-35.352;149.036;2023-04-24T10:05:31;2.08;;;1.40;;
40022;SDS011;25713;-35.352;149.036;2023-04-24T10:08:02;4.88;;;2.03;;
40022;SDS011;25713;-35.352;149.036;2023-04-24T10:10:32;2.97;;;1.67;;
40022;SDS011;25713;-35.352;149.036;2023-04-24T10:13:03;3.00;;;1.70;;
40022;SDS011;25713;-35.352;149.036;2023-04-24T10:15:33;3.13;;;1.50;;
40022;SDS011;25713;-35.352;149.036;2023-04-24T10:18:04;2.72;;;1.25;;
40022;SDS011;25713;-35.352;149.036;2023-04-24T10:20:36;3.35;;;1.70;;
40022;SDS011;25713;-35.352;149.036;2023-04-24T10:23:07;3.35;;;1.52;;
40022;SDS011;25713;-35.352;149.036;2023-04-24T10:25:36;3.78;;;1.50;;
40022;SDS011;25713;-35.352;149.036;2023-04-24T10:28:05;2.75;;;1.67;;
40022;SDS011;25713;-35.352;149.036;2023-04-24T10:30:35;2.58;;;1.33;;
40022;SDS011;25713;-35.352;149.036;2023-04-24T10:33:06;3.72;;;1.40;;
40022;SDS011;25713;-35.352;149.036;2023-04-24T10:35:39;1.77;;;1.17;;
40022;SDS011;25713;-35.352;149.036;2023-04-24T10:38:12;3.58;;;1.70;;
40022;SDS011;25713;-35.352;149.036;2023-04-24T10:43:13;3.58;;;1.83;;
40022;SDS011;25713;-35.352;149.036;2023-04-24T10:46:00;2.50;;;1.50;;
40022;SDS011;25713;-35.352;149.036;2023-04-24T10:48:30;2.40;;;1.60;;
40022;SDS011;25713;-35.352;149.036;2023-04-24T10:51:02;2.47;;;1.60;;
40022;SDS011;25713;-35.352;149.036;2023-04-24T10:53:32;2.30;;;1.70;;
40022;SDS011;25713;-35.352;149.036;2023-04-24T10:56:07;4.53;;;1.67;;
40022;SDS011;25713;-35.352;149.036;2023-04-24T10:58:37;5.50;;;1.67;;
40022;SDS011;25713;-35.352;149.036;2023-04-24T11:01:08;2.78;;;1.42;;
40022;SDS011;25713;-35.352;149.036;2023-04-24T11:03:50;2.40;;;1.35;;
40022;SDS011;25713;-35.352;149.036;2023-04-24T11:06:30;2.28;;;1.50;;
40022;SDS011;25713;-35.352;149.036;2023-04-24T11:09:04;1.73;;;1.30;;
40022;SDS011;25713;-35.352;149.036;2023-04-24T11:11:34;2.83;;;1.33;;
40022;SDS011;25713;-35.352;149.036;2023-04-24T11:14:05;2.40;;;1.60;;
40022;SDS011;25713;-35.352;149.036;2023-04-24T11:16:44;4.05;;;1.67;;
40022;SDS011;25713;-35.352;149.036;2023-04-24T11:19:20;2.90;;;1.27;;
40022;SDS011;25713;-35.352;149.036;2023-04-24T11:21:57;2.40;;;1.42;;
40022;SDS011;25713;-35.352;149.036;2023-04-24T11:24:28;3.97;;;1.67;;
40022;SDS011;25713;-35.352;149.036;2023-04-24T11:27:00;3.20;;;1.30;;
40022;SDS011;25713;-35.352;149.036;2023-04-24T11:29:42;2.17;;;1.42;;
40022;SDS011;25713;-35.352;149.036;2023-04-24T11:32:24;3.00;;;1.17;;
40022;SDS011;25713;-35.352;149.036;2023-04-24T11:34:54;4.10;;;1.40;;
40022;SDS011;25713;-35.352;149.036;2023-04-24T11:37:26;4.45;;;1.30;;
40022;SDS011;25713;-35.352;149.036;2023-04-24T11:39:57;2.97;;;1.30;;
40022;SDS011;25713;-35.352;149.036;2023-04-24T11:42:27;2.05;;;1.15;;
40022;SDS011;25713;-35.352;149.036;2023-04-24T11:45:00;1.85;;;1.20;;
40022;SDS011;25713;-35.352;149.036;2023-04-24T11:47:34;2.50;;;1.13;;
40022;SDS011;25713;-35.352;149.036;2023-04-24T11:50:05;2.22;;;1.30;;
40022;SDS011;25713;-35.352;149.036;2023-04-24T11:52:39;2.63;;;1.20;;
40022;SDS011;25713;-35.352;149.036;2023-04-24T11:55:12;2.90;;;1.25;;
40022;SDS011;25713;-35.352;149.036;2023-04-24T11:57:53;2.60;;;1.15;;
40022;SDS011;25713;-35.352;149.036;2023-04-24T12:00:23;2.72;;;1.08;;
40022;SDS011;25713;-35.352;149.036;2023-04-24T12:03:03;2.05;;;1.02;;
40022;SDS011;25713;-35.352;149.036;2023-04-24T12:05:33;2.83;;;1.13;;
40022;SDS011;25713;-35.352;149.036;2023-04-24T12:08:05;1.13;;;0.90;;
40022;SDS011;25713;-35.352;149.036;2023-04-24T12:10:35;2.38;;;1.10;;
40022;SDS011;25713;-35.352;149.036;2023-04-24T12:13:04;2.72;;;1.17;;
40022;SDS011;25713;-35.352;149.036;2023-04-24T12:15:39;2.05;;;1.00;;
40022;SDS011;25713;-35.352;149.036;2023-04-24T12:18:11;3.72;;;1.10;;
40022;SDS011;25713;-35.352;149.036;2023-04-24T12:20:40;3.75;;;1.08;;
40022;SDS011;25713;-35.352;149.036;2023-04-24T12:23:12;3.67;;;1.35;;
40022;SDS011;25713;-35.352;149.036;2023-04-24T12:25:41;2.58;;;1.10;;
40022;SDS011;25713;-35.352;149.036;2023-04-24T12:28:11;2.22;;;0.98;;
40022;SDS011;25713;-35.352;149.036;2023-04-24T12:30:41;3.55;;;1.30;;
40022;SDS011;25713;-35.352;149.036;2023-04-24T12:33:11;1.75;;;1.05;;
40022;SDS011;25713;-35.352;149.036;2023-04-24T12:35:45;2.17;;;1.15;;
40022;SDS011;25713;-35.352;149.036;2023-04-24T12:38:21;1.95;;;0.95;;
40022;SDS011;25713;-35.352;149.036;2023-04-24T12:41:01;2.95;;;1.10;;
40022;SDS011;25713;-35.352;149.036;2023-04-24T12:43:31;3.47;;;1.10;;
40022;SDS011;25713;-35.352;149.036;2023-04-24T12:46:01;1.60;;;1.15;;
40022;SDS011;25713;-35.352;149.036;2023-04-24T12:48:31;5.18;;;1.27;;
40022;SDS011;25713;-35.352;149.036;2023-04-24T12:51:00;3.42;;;1.40;;
40022;SDS011;25713;-35.352;149.036;2023-04-24T12:53:31;2.72;;;1.20;;
40022;SDS011;25713;-35.352;149.036;2023-04-24T12:56:01;2.65;;;0.90;;
40022;SDS011;25713;-35.352;149.036;2023-04-24T12:58:30;2.28;;;1.17;;
40022;SDS011;25713;-35.352;149.036;2023-04-24T13:01:00;3.33;;;1.20;;
40022;SDS011;25713;-35.352;149.036;2023-04-24T13:03:29;2.33;;;1.00;;
40022;SDS011;25713;-35.352;149.036;2023-04-24T13:05:58;3.30;;;1.30;;
40022;SDS011;25713;-35.352;149.036;2023-04-24T13:08:28;4.32;;;1.63;;
40022;SDS011;25713;-35.352;149.036;2023-04-24T13:11:00;3.13;;;1.38;;
40022;SDS011;25713;-35.352;149.036;2023-04-24T13:13:29;4.93;;;1.27;;
40022;SDS011;25713;-35.352;149.036;2023-04-24T13:15:59;3.30;;;1.35;;
40022;SDS011;25713;-35.352;149.036;2023-04-24T13:18:28;3.53;;;1.67;;
40022;SDS011;25713;-35.352;149.036;2023-04-24T13:20:58;5.78;;;1.10;;
40022;SDS011;25713;-35.352;149.036;2023-04-24T13:23:27;1.50;;;1.20;;
40022;SDS011;25713;-35.352;149.036;2023-04-24T13:25:58;2.10;;;1.17;;
40022;SDS011;25713;-35.352;149.036;2023-04-24T13:28:28;2.10;;;1.07;;
40022;SDS011;25713;-35.352;149.036;2023-04-24T13:30:57;5.00;;;1.20;;
40022;SDS011;25713;-35.352;149.036;2023-04-24T13:33:27;4.85;;;1.48;;
40022;SDS011;25713;-35.352;149.036;2023-04-24T13:35:57;2.85;;;1.40;;
40022;SDS011;25713;-35.352;149.036;2023-04-24T13:38:26;4.57;;;1.30;;
40022;SDS011;25713;-35.352;149.036;2023-04-24T13:40:55;2.97;;;1.25;;
40022;SDS011;25713;-35.352;149.036;2023-04-24T13:43:27;2.40;;;1.38;;
40022;SDS011;25713;-35.352;149.036;2023-04-24T13:45:57;3.78;;;1.27;;
40022;SDS011;25713;-35.352;149.036;2023-04-24T13:48:26;3.58;;;1.60;;
40022;SDS011;25713;-35.352;149.036;2023-04-24T13:50:56;3.53;;;1.30;;
40022;SDS011;25713;-35.352;149.036;2023-04-24T13:53:26;2.28;;;1.30;;
40022;SDS011;25713;-35.352;149.036;2023-04-24T13:55:55;3.92;;;1.35;;
40022;SDS011;25713;-35.352;149.036;2023-04-24T13:58:26;2.85;;;1.45;;
40022;SDS011;25713;-35.352;149.036;2023-04-24T14:00:56;2.83;;;1.60;;
40022;SDS011;25713;-35.352;149.036;2023-04-24T14:03:25;2.05;;;1.50;;
40022;SDS011;25713;-35.352;149.036;2023-04-24T14:05:55;3.63;;;1.65;;
40022;SDS011;25713;-35.352;149.036;2023-04-24T14:08:24;3.10;;;1.42;;
40022;SDS011;25713;-35.352;149.036;2023-04-24T14:10:53;2.50;;;1.58;;
40022;SDS011;25713;-35.352;149.036;2023-04-24T14:13:25;4.80;;;1.58;;
40022;SDS011;25713;-35.352;149.036;2023-04-24T14:15:54;2.50;;;1.60;;
40022;SDS011;25713;-35.352;149.036;2023-04-24T14:18:25;3.13;;;1.50;;
40022;SDS011;25713;-35.352;149.036;2023-04-24T14:20:54;5.53;;;1.48;;
40022;SDS011;25713;-35.352;149.036;2023-04-24T14:23:23;2.97;;;1.67;;
40022;SDS011;25713;-35.352;149.036;2023-04-24T14:25:53;3.63;;;1.70;;
40022;SDS011;25713;-35.352;149.036;2023-04-24T14:28:22;3.42;;;1.48;;
40022;SDS011;25713;-35.352;149.036;2023-04-24T14:30:53;4.73;;;1.43;;
40022;SDS011;25713;-35.352;149.036;2023-04-24T14:33:23;2.72;;;1.55;;
40022;SDS011;25713;-35.352;149.036;2023-04-24T14:35:52;8.45;;;1.75;;
40022;SDS011;25713;-35.352;149.036;2023-04-24T14:38:22;3.20;;;1.60;;
40022;SDS011;25713;-35.352;149.036;2023-04-24T14:40:51;2.08;;;1.67;;